Time;durP1;ratioP1;P1;durP2;ratioP2;P2;SDS_P1;SDS_P2;PMS_P1;PMS_P2;Temp;Humidity;BMP_temperature;BMP_pressure;BME280_temperature;BME280_humidity;BME280_pressure;Samples;Min_cycle;Max_cycle;Signal;HPM_P1;HPM_P2
2022/01/19 00:01:55;;;;;;;18.80;7.77;;;-3.50;99.90;;;;;;4123847;28;20412;-58
2022/01/19 00:03:56;;;;;;;17.43;7.73;;;-3.50;99.90;;;;;;4122911;28;20307;-60
2022/01/19 00:05:57;;;;;;;16.97;7.43;;;-3.50;99.90;;;;;;4107590;28;20760;-59
2022/01/19 00:07:58;;;;;;;22.83;9.35;;;-3.50;99.90;;;;;;4107107;28;20331;-60
2022/01/19 00:10:04;;;;;;;22.00;9.43;;;-3.50;99.90;;;;;;4117048;28;20086;-66
2022/01/19 00:12:05;;;;;;;17.37;7.87;;;-3.50;99.90;;;;;;4123167;28;20319;-58
2022/01/19 00:14:06;;;;;;;19.70;9.40;;;-3.50;99.90;;;;;;4122156;28;20709;-62
2022/01/19 00:16:08;;;;;;;16.30;7.97;;;-3.50;99.90;;;;;;4108325;28;20633;-59
2022/01/19 00:18:09;;;;;;;24.13;10.60;;;-3.50;99.90;;;;;;4106761;28;20293;-58
2022/01/19 00:20:10;;;;;;;27.73;11.00;;;-3.50;99.90;;;;;;4107948;28;20578;-58
2022/01/19 00:22:11;;;;;;;18.42;8.73;;;-3.50;99.90;;;;;;4106534;28;20273;-62
2022/01/19 00:24:12;;;;;;;26.67;11.30;;;-3.50;99.90;;;;;;4123580;28;20038;-58
2022/01/19 00:26:13;;;;;;;30.00;12.03;;;-3.50;99.90;;;;;;4122697;28;20331;-61
2022/01/19 00:28:16;;;;;;;18.13;8.93;;;-3.60;99.90;;;;;;4124074;28;20323;-60
2022/01/19 00:30:18;;;;;;;19.53;9.77;;;-3.50;99.90;;;;;;4115702;28;20771;-58
2022/01/19 00:32:20;;;;;;;36.80;10.80;;;-3.50;99.90;;;;;;4124231;28;20264;-57
2022/01/19 00:34:21;;;;;;;37.90;12.97;;;-3.60;99.90;;;;;;4124509;28;20312;-58
2022/01/19 00:36:22;;;;;;;39.60;13.00;;;-3.60;99.90;;;;;;4126492;28;20322;-61
2022/01/19 00:38:23;;;;;;;40.20;14.73;;;-3.60;99.90;;;;;;4125659;28;20341;-59
2022/01/19 00:40:24;;;;;;;21.63;9.48;;;-3.60;99.90;;;;;;4125616;28;20276;-58
2022/01/19 00:42:26;;;;;;;18.33;9.13;;;-3.60;99.90;;;;;;4125557;28;20092;-59
2022/01/19 00:44:27;;;;;;;20.73;7.87;;;-3.70;99.90;;;;;;4125603;28;20288;-58
2022/01/19 00:46:28;;;;;;;22.07;8.23;;;-3.70;99.90;;;;;;4117453;28;20281;-59
2022/01/19 00:48:30;;;;;;;20.80;7.87;;;-3.60;99.90;;;;;;4109824;28;20304;-61
2022/01/19 00:50:31;;;;;;;17.88;8.05;;;-3.60;99.90;;;;;;4109890;28;20389;-60
2022/01/19 00:52:34;;;;;;;17.80;7.47;;;-3.60;99.90;;;;;;4109412;28;20384;-57
2022/01/19 00:54:36;;;;;;;18.13;7.63;;;-3.60;99.90;;;;;;4110322;28;20610;-56
2022/01/19 00:56:38;;;;;;;19.25;7.97;;;-3.60;99.90;;;;;;4113233;28;20260;-59
2022/01/19 00:58:39;;;;;;;11.40;5.93;;;-3.60;99.90;;;;;;4126330;28;20034;-61
2022/01/19 01:00:40;;;;;;;17.90;6.85;;;-3.60;99.90;;;;;;4124885;28;20319;-60
2022/01/19 01:02:41;;;;;;;16.38;6.50;;;-3.60;99.90;;;;;;4126577;28;20026;-59
2022/01/19 01:04:42;;;;;;;13.30;6.10;;;-3.60;99.90;;;;;;4125369;28;20426;-59
2022/01/19 01:06:43;;;;;;;14.18;6.15;;;-3.60;99.90;;;;;;4122322;28;20084;-62
2022/01/19 01:08:44;;;;;;;14.05;5.63;;;-3.60;99.90;;;;;;4125327;28;20746;-61
2022/01/19 01:10:46;;;;;;;15.40;7.47;;;-3.50;99.90;;;;;;4126047;28;20042;-58
2022/01/19 01:12:52;;;;;;;16.58;7.22;;;-3.60;99.90;;;;;;4125520;28;20030;-61
2022/01/19 01:18:18;;;;;;;13.40;6.97;;;-3.60;99.90;;;;;;4124908;28;20299;-61
2022/01/19 01:19:34;;;;;;;15.80;6.97;;;-3.60;99.90;;;;;;4125351;28;20034;-57
2022/01/19 01:21:36;;;;;;;14.27;6.07;;;-3.60;99.90;;;;;;4125430;28;20825;-58
2022/01/19 01:23:37;;;;;;;18.92;6.65;;;-3.60;99.90;;;;;;4121550;28;20046;-60
2022/01/19 01:25:39;;;;;;;18.70;7.03;;;-3.60;99.90;;;;;;4125242;28;20490;-58
2022/01/19 01:27:40;;;;;;;17.52;7.15;;;-3.60;99.90;;;;;;4125117;28;20288;-57
2022/01/19 01:29:42;;;;;;;14.00;6.68;;;-3.60;99.90;;;;;;4125447;28;20037;-57
2022/01/19 01:31:43;;;;;;;19.67;6.88;;;-3.60;99.90;;;;;;4108936;28;20376;-59
2022/01/19 01:33:45;;;;;;;17.70;7.75;;;-3.60;99.90;;;;;;4109581;28;20119;-56
2022/01/19 01:35:50;;;;;;;17.45;7.22;;;-3.70;99.90;;;;;;4112532;28;20030;-59
2022/01/19 01:37:52;;;;;;;23.20;7.60;;;-3.70;99.90;;;;;;4128887;28;20042;-66
2022/01/19 01:39:53;;;;;;;18.33;7.50;;;-3.70;99.90;;;;;;4124662;28;20071;-60
2022/01/19 01:41:54;;;;;;;15.45;7.55;;;-3.70;99.90;;;;;;4110040;28;20335;-58
2022/01/19 01:43:55;;;;;;;17.58;7.10;;;-3.70;99.90;;;;;;4107993;28;20454;-56
2022/01/19 01:46:03;;;;;;;17.13;7.65;;;-3.70;99.90;;;;;;4108726;28;20089;-61
2022/01/19 01:48:14;;;;;;;17.42;7.22;;;-3.70;99.90;;;;;;4108432;28;21065;-57
2022/01/19 01:54:41;;;;;;;16.35;7.13;;;-3.70;99.90;;;;;;4123775;28;20093;-60
2022/01/19 01:56:42;;;;;;;19.33;7.32;;;-3.70;99.90;;;;;;4108968;28;20117;-63
2022/01/19 01:58:46;;;;;;;18.33;8.07;;;-3.70;99.90;;;;;;4109082;28;20034;-59
2022/01/19 02:00:47;;;;;;;16.92;7.32;;;-3.80;99.90;;;;;;4108054;28;20109;-58
2022/01/19 02:02:49;;;;;;;17.58;7.22;;;-3.80;99.90;;;;;;4109113;28;20038;-62
2022/01/19 02:04:50;;;;;;;16.38;7.68;;;-3.80;99.90;;;;;;4111523;28;20026;-59
2022/01/19 02:09:17;;;;;;;15.80;7.70;;;-3.80;99.90;;;;;;4124355;28;20128;-60
2022/01/19 02:16:28;;;;;;;17.92;7.13;;;-3.70;99.90;;;;;;4111107;28;20093;-60
2022/01/19 02:23:06;;;;;;;20.95;7.53;;;-3.80;99.90;;;;;;4107826;28;20431;-62
2022/01/19 02:25:07;;;;;;;15.07;7.60;;;-3.80;99.90;;;;;;4110096;28;20117;-65
2022/01/19 02:30:05;;;;;;;17.63;8.57;;;-3.80;99.90;;;;;;4108382;28;20541;-60
2022/01/19 02:36:35;;;;;;;20.88;9.45;;;-3.80;99.90;;;;;;4107112;28;20027;-64
2022/01/19 02:41:14;;;;;;;16.08;7.22;;;-3.80;99.90;;;;;;4124219;28;20180;-61
2022/01/19 02:43:23;;;;;;;19.50;8.05;;;-3.80;99.90;;;;;;4122813;28;20124;-63
2022/01/19 02:50:07;;;;;;;20.10;9.07;;;-3.70;99.90;;;;;;4106073;28;20023;-60
2022/01/19 02:52:08;;;;;;;21.38;8.82;;;-3.70;99.90;;;;;;4106234;28;20133;-63
2022/01/19 02:54:18;;;;;;;18.80;7.95;;;-3.70;99.90;;;;;;4107612;28;20599;-59
2022/01/19 02:56:32;;;;;;;17.38;7.68;;;-3.70;99.90;;;;;;4113554;28;20073;-63
2022/01/19 02:58:39;;;;;;;16.77;7.78;;;-3.70;99.90;;;;;;4123675;28;20050;-56
2022/01/19 03:09:59;;;;;;;17.52;6.80;;;-3.70;99.90;;;;;;4121339;28;20093;-56
2022/01/19 03:12:00;;;;;;;24.57;9.23;;;-3.70;99.90;;;;;;4124037;28;20031;-60
2022/01/19 03:14:03;;;;;;;15.48;8.52;;;-3.70;99.90;;;;;;4119158;28;20835;-58
2022/01/19 03:16:04;;;;;;;16.77;8.65;;;-3.70;99.90;;;;;;4107643;28;20089;-58
2022/01/19 03:18:06;;;;;;;20.03;8.97;;;-3.80;99.90;;;;;;4107317;28;20050;-64
2022/01/19 03:20:09;;;;;;;17.05;7.43;;;-3.70;99.90;;;;;;4107305;28;21723;-58
2022/01/19 03:22:10;;;;;;;15.65;7.53;;;-3.80;99.90;;;;;;4107589;28;20022;-59
2022/01/19 03:24:12;;;;;;;19.73;7.55;;;-3.80;99.90;;;;;;4108940;28;20023;-59
2022/01/19 03:26:13;;;;;;;16.08;7.72;;;-3.90;99.90;;;;;;4107344;28;20518;-64
2022/01/19 03:28:15;;;;;;;17.00;7.80;;;-3.80;99.90;;;;;;4107126;28;20102;-58
2022/01/19 03:30:19;;;;;;;18.77;8.40;;;-3.90;99.90;;;;;;4118968;28;20093;-58
2022/01/19 03:32:20;;;;;;;14.35;7.10;;;-3.80;99.90;;;;;;4122842;28;20307;-61
2022/01/19 03:34:21;;;;;;;14.95;7.78;;;-3.90;99.90;;;;;;4121330;28;20088;-58
2022/01/19 03:36:22;;;;;;;16.40;7.30;;;-3.90;99.90;;;;;;4122835;28;20030;-59
2022/01/19 03:38:24;;;;;;;18.70;7.57;;;-3.90;99.90;;;;;;4123041;28;20549;-64
2022/01/19 03:40:25;;;;;;;18.90;7.50;;;-3.90;99.90;;;;;;4119730;28;20022;-57
2022/01/19 03:42:26;;;;;;;12.35;7.30;;;-4.00;99.90;;;;;;4123647;28;20034;-59
2022/01/19 03:44:27;;;;;;;17.58;7.78;;;-4.00;99.90;;;;;;4123252;28;20038;-58
2022/01/19 03:46:33;;;;;;;18.25;7.82;;;-4.00;99.90;;;;;;4123377;28;20113;-59
2022/01/19 03:48:58;;;;;;;19.67;8.50;;;-4.00;99.90;;;;;;4123023;28;20065;-60
2022/01/19 03:50:56;;;;;;;20.42;9.15;;;-4.00;99.90;;;;;;4120544;28;20558;-57
2022/01/19 03:52:57;;;;;;;17.27;7.22;;;-4.10;99.90;;;;;;4107070;28;20043;-60
2022/01/19 03:54:58;;;;;;;23.17;7.97;;;-4.10;99.90;;;;;;4114847;28;20038;-59
2022/01/19 03:56:59;;;;;;;18.42;7.57;;;-4.10;99.90;;;;;;4123317;28;20042;-57
2022/01/19 03:59:00;;;;;;;18.60;7.95;;;-4.10;99.90;;;;;;4119392;28;20105;-59
2022/01/19 04:01:04;;;;;;;17.35;7.30;;;-4.10;99.90;;;;;;4123376;28;20050;-57
2022/01/19 04:03:06;;;;;;;16.40;7.45;;;-4.10;99.90;;;;;;4123496;28;20038;-61
2022/01/19 04:05:17;;;;;;;21.40;7.95;;;-4.10;99.90;;;;;;4121037;28;20097;-59
2022/01/19 04:07:18;;;;;;;14.70;7.35;;;-4.10;99.90;;;;;;4123469;28;20042;-62
2022/01/19 04:09:19;;;;;;;19.58;7.15;;;-4.20;99.90;;;;;;4126788;28;20092;-57
2022/01/19 04:11:22;;;;;;;14.82;6.10;;;-4.20;99.90;;;;;;4125495;28;20026;-59
2022/01/19 04:13:31;;;;;;;13.68;6.85;;;-4.10;99.90;;;;;;4124545;28;20093;-59
2022/01/19 04:15:32;;;;;;;18.33;7.05;;;-4.10;99.90;;;;;;4125619;28;20498;-59
2022/01/19 04:17:35;;;;;;;23.92;9.13;;;-4.10;99.90;;;;;;4126256;28;20031;-62
2022/01/19 04:21:40;;;;;;;16.33;7.75;;;-4.10;99.90;;;;;;4110661;28;20077;-63
2022/01/19 04:23:41;;;;;;;18.52;7.60;;;-4.10;99.90;;;;;;4110453;28;20038;-64
2022/01/19 04:25:43;;;;;;;22.60;8.48;;;-4.10;99.90;;;;;;4110208;28;20459;-57
2022/01/19 04:27:45;;;;;;;18.85;7.93;;;-4.10;99.90;;;;;;4109488;28;20034;-61
2022/01/19 04:30:21;;;;;;;21.45;7.22;;;-4.10;99.90;;;;;;4110156;28;20101;-63
2022/01/19 04:32:23;;;;;;;17.52;7.32;;;-4.10;99.90;;;;;;4110165;28;20031;-59
2022/01/19 04:34:24;;;;;;;19.65;7.88;;;-4.20;99.90;;;;;;4110802;28;20047;-62
2022/01/19 04:36:35;;;;;;;16.20;6.93;;;-4.20;99.90;;;;;;4110114;28;20581;-60
2022/01/19 05:03:49;;;;;;;19.48;9.20;;;-4.40;99.90;;;;;;4117531;28;20561;-60
2022/01/19 05:05:58;;;;;;;23.50;9.73;;;-4.50;99.90;;;;;;4113930;28;20134;-58
2022/01/19 05:08:14;;;;;;;24.60;10.25;;;-4.50;99.90;;;;;;4124672;28;20540;-58
2022/01/19 05:14:54;;;;;;;20.40;8.70;;;-4.40;99.90;;;;;;4108602;28;20109;-60
2022/01/19 05:16:56;;;;;;;21.88;9.00;;;-4.40;99.90;;;;;;4109855;28;20039;-59
2022/01/19 05:18:57;;;;;;;18.25;8.75;;;-4.40;99.90;;;;;;4107566;28;20619;-62
2022/01/19 05:20:58;;;;;;;23.38;9.60;;;-4.40;99.90;;;;;;4108329;28;20043;-63
2022/01/19 05:22:59;;;;;;;18.02;9.70;;;-4.30;99.90;;;;;;4110570;28;20086;-59
2022/01/19 05:25:01;;;;;;;20.60;8.52;;;-4.30;99.90;;;;;;4107751;28;20105;-60
2022/01/19 05:27:02;;;;;;;20.35;9.50;;;-4.30;99.90;;;;;;4109343;28;20094;-59
2022/01/19 05:29:03;;;;;;;24.48;9.77;;;-4.30;99.90;;;;;;4107933;28;20046;-60
2022/01/19 05:31:05;;;;;;;22.17;9.18;;;-4.30;99.90;;;;;;4108912;28;20077;-62
2022/01/19 05:33:06;;;;;;;20.73;8.38;;;-4.30;99.90;;;;;;4121360;28;20109;-61
2022/01/19 05:35:07;;;;;;;21.65;8.68;;;-4.30;99.90;;;;;;4123550;28;20576;-62
2022/01/19 05:37:09;;;;;;;20.63;8.70;;;-4.30;99.90;;;;;;4124043;28;20035;-64
2022/01/19 05:39:10;;;;;;;17.38;8.23;;;-4.30;99.90;;;;;;4124572;28;20085;-59
2022/01/19 05:41:11;;;;;;;17.60;8.05;;;-4.40;99.90;;;;;;4111340;28;20034;-62
2022/01/19 05:43:13;;;;;;;19.30;8.70;;;-4.30;99.90;;;;;;4112540;28;20047;-62
2022/01/19 05:45:16;;;;;;;21.90;9.15;;;-4.40;99.90;;;;;;4123978;28;20042;-60
2022/01/19 05:47:17;;;;;;;23.60;9.65;;;-4.40;99.90;;;;;;4124329;28;20038;-62
2022/01/19 05:49:19;;;;;;;20.88;11.02;;;-4.40;99.90;;;;;;4112952;28;20105;-61
2022/01/19 05:51:20;;;;;;;26.63;9.25;;;-4.40;99.90;;;;;;4111065;28;20046;-62
2022/01/19 05:53:21;;;;;;;28.55;11.55;;;-4.50;99.90;;;;;;4123816;28;20035;-59
2022/01/19 05:55:23;;;;;;;31.52;12.55;;;-4.50;99.90;;;;;;4111315;28;20521;-59
2022/01/19 05:57:24;;;;;;;24.83;12.05;;;-4.50;99.90;;;;;;4110837;28;20031;-65
2022/01/19 05:59:26;;;;;;;23.00;11.20;;;-4.60;99.90;;;;;;4109313;28;20506;-59
2022/01/19 06:01:27;;;;;;;28.88;10.98;;;-4.60;99.90;;;;;;4108306;28;20106;-61
2022/01/19 06:03:28;;;;;;;27.63;12.20;;;-4.70;99.90;;;;;;4108467;28;20541;-64
2022/01/19 06:05:30;;;;;;;25.58;10.63;;;-4.70;99.90;;;;;;4108648;28;20047;-63
2022/01/19 06:07:39;;;;;;;24.50;11.40;;;-4.60;99.90;;;;;;4108058;28;20089;-63
2022/01/19 06:11:44;;;;;;;27.20;11.07;;;-4.70;99.90;;;;;;4108057;28;20035;-59
2022/01/19 06:13:46;;;;;;;25.88;11.32;;;-4.60;99.90;;;;;;4108470;28;20565;-64
2022/01/19 06:15:48;;;;;;;26.05;10.95;;;-4.60;99.90;;;;;;4108181;28;20282;-61
2022/01/19 06:17:49;;;;;;;27.33;11.93;;;-4.50;99.90;;;;;;4108255;28;20515;-61
2022/01/19 06:19:50;;;;;;;63.75;22.52;;;-4.30;99.90;;;;;;4107319;28;20059;-61
2022/01/19 06:21:51;;;;;;;52.75;19.10;;;-4.20;99.90;;;;;;4108072;28;20192;-61
2022/01/19 06:23:52;;;;;;;42.45;16.70;;;-4.20;99.90;;;;;;4108647;28;20085;-60
2022/01/19 06:25:54;;;;;;;29.52;13.52;;;-4.20;99.90;;;;;;4107442;28;20372;-62
2022/01/19 06:27:55;;;;;;;43.58;18.27;;;-4.00;99.90;;;;;;4108319;28;20039;-59
2022/01/19 06:29:56;;;;;;;30.05;14.80;;;-3.80;99.90;;;;;;4107509;28;20062;-62
2022/01/19 06:31:57;;;;;;;31.42;14.02;;;-3.50;99.90;;;;;;4107747;28;20038;-60
2022/01/19 06:33:58;;;;;;;33.67;15.65;;;-3.30;99.90;;;;;;4107775;28;20035;-64
2022/01/19 06:35:59;;;;;;;46.30;17.55;;;-3.10;99.90;;;;;;4108083;28;20034;-64
2022/01/19 06:38:01;;;;;;;46.13;19.50;;;-3.00;99.90;;;;;;4107182;28;20078;-62
2022/01/19 06:40:05;;;;;;;27.20;13.07;;;-2.90;99.90;;;;;;4107912;28;20476;-62
2022/01/19 06:42:06;;;;;;;36.70;18.23;;;-2.70;99.90;;;;;;4107220;28;20061;-59
2022/01/19 06:44:07;;;;;;;26.50;13.53;;;-2.60;99.90;;;;;;4107523;28;20331;-64
2022/01/19 06:46:09;;;;;;;24.43;12.77;;;-2.30;99.90;;;;;;4114039;28;20268;-63
2022/01/19 06:48:10;;;;;;;30.37;14.97;;;-2.10;99.90;;;;;;4123893;28;20264;-60
2022/01/19 06:50:12;;;;;;;24.63;13.33;;;-1.90;99.90;;;;;;4122866;28;21165;-63
2022/01/19 06:52:13;;;;;;;28.17;12.77;;;-1.90;99.90;;;;;;4123564;28;20260;-61
2022/01/19 06:54:14;;;;;;;31.87;15.30;;;-2.00;99.90;;;;;;4123616;28;20326;-64
2022/01/19 06:56:16;;;;;;;29.17;13.27;;;-2.10;99.90;;;;;;4123517;28;20268;-62
2022/01/19 06:58:17;;;;;;;25.43;13.30;;;-2.10;99.90;;;;;;4123552;28;20806;-61
2022/01/19 07:00:18;;;;;;;27.40;13.33;;;-2.10;99.90;;;;;;4123107;28;20296;-61
2022/01/19 07:02:19;;;;;;;22.13;11.83;;;-2.00;99.90;;;;;;4123834;28;20362;-61
2022/01/19 07:04:21;;;;;;;28.87;13.90;;;-1.90;99.90;;;;;;4122819;28;20323;-61
2022/01/19 07:06:22;;;;;;;29.10;15.30;;;-1.60;99.90;;;;;;4123425;28;20330;-61
2022/01/19 07:08:23;;;;;;;32.23;14.00;;;-1.40;99.90;;;;;;4122649;28;20268;-60
2022/01/19 07:10:24;;;;;;;28.47;13.50;;;-1.40;99.90;;;;;;4123496;28;20820;-62
2022/01/19 07:12:29;;;;;;;26.53;12.90;;;-1.30;99.90;;;;;;4122839;28;20771;-63
2022/01/19 07:14:30;;;;;;;30.10;12.70;;;-1.40;99.90;;;;;;4122656;28;20301;-64
2022/01/19 07:16:31;;;;;;;33.97;13.10;;;-1.20;99.90;;;;;;4122635;28;20366;-64
2022/01/19 07:18:33;;;;;;;33.20;13.83;;;-0.90;99.90;;;;;;4123147;28;20268;-61
2022/01/19 07:20:34;;;;;;;28.67;13.97;;;-0.70;99.90;;;;;;4122610;28;20296;-61
2022/01/19 07:22:35;;;;;;;36.00;15.50;;;-0.40;99.90;;;;;;4123274;28;20264;-62
2022/01/19 07:24:37;;;;;;;24.43;12.23;;;-0.10;99.90;;;;;;4122863;28;20322;-62
2022/01/19 07:26:38;;;;;;;25.93;14.30;;;0.10;99.90;;;;;;4122681;28;20775;-61
2022/01/19 07:28:39;;;;;;;24.80;12.03;;;0.30;99.90;;;;;;4123199;28;20271;-62
2022/01/19 07:30:40;;;;;;;29.63;13.53;;;0.40;99.90;;;;;;4122698;28;20272;-62
2022/01/19 07:32:42;;;;;;;24.53;13.00;;;0.50;99.90;;;;;;4123698;28;20350;-63
2022/01/19 07:34:43;;;;;;;26.20;12.13;;;0.60;99.90;;;;;;4122999;28;20767;-61
2022/01/19 07:36:44;;;;;;;23.63;13.00;;;0.80;99.90;;;;;;4123611;28;20284;-61
2022/01/19 07:38:46;;;;;;;23.00;12.90;;;0.90;99.90;;;;;;4122113;28;20279;-64
2022/01/19 07:40:47;;;;;;;25.23;13.33;;;1.20;99.90;;;;;;4123347;28;20264;-62
2022/01/19 07:42:49;;;;;;;31.80;13.67;;;1.60;99.90;;;;;;4125503;28;20333;-61
2022/01/19 07:44:50;;;;;;;26.47;12.30;;;1.80;99.90;;;;;;4128703;28;21068;-65
2022/01/19 07:46:51;;;;;;;26.80;12.47;;;2.10;99.90;;;;;;4127644;28;20655;-61
2022/01/19 07:48:53;;;;;;;23.43;11.87;;;2.10;99.90;;;;;;4128462;28;20100;-61
2022/01/19 07:50:54;;;;;;;25.37;13.20;;;2.10;99.90;;;;;;4128590;28;20038;-61
2022/01/19 07:52:55;;;;;;;20.13;12.77;;;2.10;99.90;;;;;;4128040;28;20687;-61
2022/01/19 07:54:57;;;;;;;25.27;12.23;;;2.20;99.90;;;;;;4128299;28;20470;-61
2022/01/19 07:56:58;;;;;;;17.30;10.50;;;2.30;99.90;;;;;;4128103;28;20073;-60
2022/01/19 07:58:59;;;;;;;21.07;10.90;;;2.30;99.90;;;;;;4127959;28;20267;-60
2022/01/19 08:01:01;;;;;;;18.73;9.47;;;2.30;99.90;;;;;;4127458;28;20300;-61
2022/01/19 08:03:02;;;;;;;17.63;8.67;;;2.00;99.90;;;;;;4127975;28;20812;-60
2022/01/19 08:05:04;;;;;;;15.57;9.10;;;2.00;99.90;;;;;;4128239;28;20272;-61
2022/01/19 08:07:05;;;;;;;17.13;8.43;;;2.20;99.90;;;;;;4128920;28;20334;-62
2022/01/19 08:09:07;;;;;;;17.07;9.20;;;2.50;99.90;;;;;;4128140;28;20349;-60
2022/01/19 08:11:08;;;;;;;17.13;8.20;;;2.40;99.90;;;;;;4128757;28;20284;-61
2022/01/19 08:13:10;;;;;;;18.17;8.00;;;2.40;99.90;;;;;;4127697;28;20272;-62
2022/01/19 08:15:11;;;;;;;11.97;7.73;;;2.40;99.90;;;;;;4128391;28;20307;-62
2022/01/19 08:17:12;;;;;;;10.93;6.97;;;2.30;99.90;;;;;;4127761;28;20268;-61
2022/01/19 08:19:13;;;;;;;15.27;8.37;;;2.30;99.90;;;;;;4128067;28;20350;-61
2022/01/19 08:21:14;;;;;;;19.07;10.10;;;2.30;99.90;;;;;;4128280;28;20268;-60
2022/01/19 08:23:15;;;;;;;22.43;12.00;;;2.40;99.90;;;;;;4127975;28;20256;-63
2022/01/19 08:25:17;;;;;;;22.30;11.33;;;2.30;99.90;;;;;;4128082;28;20660;-61
2022/01/19 08:27:18;;;;;;;18.63;9.37;;;2.30;99.90;;;;;;4128337;28;20284;-61
2022/01/19 08:29:19;;;;;;;14.63;7.57;;;2.30;99.90;;;;;;4127980;28;20323;-61
2022/01/19 08:31:20;;;;;;;14.60;7.43;;;2.50;99.90;;;;;;4127703;28;20292;-61
2022/01/19 08:33:22;;;;;;;15.60;7.73;;;2.70;99.90;;;;;;4128165;28;20276;-61
2022/01/19 08:35:23;;;;;;;16.57;7.67;;;3.00;99.90;;;;;;4128004;28;20271;-60
2022/01/19 08:37:24;;;;;;;20.60;10.30;;;3.20;99.90;;;;;;4128646;28;20330;-61
2022/01/19 08:39:25;;;;;;;19.80;7.40;;;3.10;99.90;;;;;;4127623;28;20296;-63
2022/01/19 08:41:26;;;;;;;19.50;7.83;;;3.00;99.90;;;;;;4128816;28;20272;-63
2022/01/19 08:43:28;;;;;;;15.63;6.53;;;3.00;99.90;;;;;;4127647;28;20280;-61
2022/01/19 08:45:29;;;;;;;12.00;6.50;;;2.90;99.90;;;;;;4127892;28;20314;-63
2022/01/19 08:47:30;;;;;;;12.63;6.47;;;2.90;99.90;;;;;;4127571;28;20894;-60
2022/01/19 08:49:31;;;;;;;15.13;6.70;;;2.80;99.90;;;;;;4128062;28;20264;-63
2022/01/19 08:51:32;;;;;;;14.47;6.97;;;2.70;99.90;;;;;;4127742;28;20414;-62
2022/01/19 08:53:34;;;;;;;13.17;7.37;;;2.70;99.90;;;;;;4126990;28;20910;-62
2022/01/19 08:55:35;;;;;;;15.97;7.43;;;2.70;99.90;;;;;;4125108;28;20423;-60
2022/01/19 08:57:37;;;;;;;14.67;6.43;;;2.80;99.90;;;;;;4125452;28;20275;-61
2022/01/19 08:59:38;;;;;;;11.00;6.30;;;2.90;99.90;;;;;;4125940;28;21173;-61
2022/01/19 09:01:39;;;;;;;18.30;7.33;;;2.90;99.90;;;;;;4124889;28;20295;-59
2022/01/19 09:03:40;;;;;;;14.17;6.33;;;3.10;99.70;;;;;;4125749;28;21126;-60
2022/01/19 09:05:42;;;;;;;15.40;6.03;;;3.30;99.60;;;;;;4124874;28;20327;-60
2022/01/19 09:07:43;;;;;;;13.93;6.77;;;3.50;99.10;;;;;;4125662;28;20284;-66
2022/01/19 09:09:44;;;;;;;19.07;9.27;;;3.80;99.20;;;;;;4124847;28;20276;-60
2022/01/19 09:11:45;;;;;;;25.93;10.53;;;3.80;98.30;;;;;;4125474;28;20349;-62
2022/01/19 09:13:48;;;;;;;16.57;8.07;;;3.70;98.20;;;;;;4124754;28;20264;-61
2022/01/19 09:15:49;;;;;;;15.93;7.27;;;3.70;98.60;;;;;;4125367;28;20280;-61
2022/01/19 09:17:52;;;;;;;15.30;7.90;;;3.80;98.60;;;;;;4124024;28;20347;-61
2022/01/19 09:19:53;;;;;;;14.67;7.30;;;4.00;98.20;;;;;;4124677;28;21156;-61
2022/01/19 09:21:55;;;;;;;17.03;8.73;;;4.00;97.50;;;;;;4124951;28;20275;-61
2022/01/19 09:23:57;;;;;;;17.77;9.17;;;3.90;97.80;;;;;;4125504;28;20720;-59
2022/01/19 09:25:58;;;;;;;22.50;11.20;;;3.90;97.70;;;;;;4124783;28;20280;-61
2022/01/19 09:28:00;;;;;;;19.50;9.33;;;4.00;97.90;;;;;;4124740;28;20354;-62
2022/01/19 09:30:03;;;;;;;19.00;9.33;;;4.00;97.40;;;;;;4124621;28;20264;-64
2022/01/19 09:32:09;;;;;;;28.37;12.43;;;4.00;97.80;;;;;;4124179;28;20284;-61
2022/01/19 09:34:15;;;;;;;25.43;11.97;;;3.70;97.30;;;;;;4125369;28;20284;-60
2022/01/19 09:36:35;;;;;;;34.17;13.07;;;3.40;97.70;;;;;;4125054;28;20272;-61
2022/01/19 09:38:37;;;;;;;;;;;3.40;98.30;;;;;;4124948;28;20276;-60
2022/01/19 09:40:39;;;;;;;17.97;8.77;;;3.10;95.90;;;;;;4123813;28;19918;-61
2022/01/19 09:42:40;;;;;;;20.00;9.37;;;3.20;98.30;;;;;;4124765;28;20280;-61
2022/01/19 09:44:41;;;;;;;19.87;8.33;;;3.50;98.60;;;;;;4124230;28;20276;-61
2022/01/19 09:46:43;;;;;;;17.33;8.90;;;3.50;98.10;;;;;;4124930;28;21145;-61
2022/01/19 09:48:44;;;;;;;21.87;8.63;;;3.60;98.00;;;;;;4124152;28;20272;-60
2022/01/19 09:50:45;;;;;;;20.33;8.97;;;3.40;97.90;;;;;;4124784;28;20271;-61
2022/01/19 09:52:46;;;;;;;19.33;8.67;;;3.30;97.80;;;;;;4123956;28;20291;-60
2022/01/19 09:54:48;;;;;;;14.17;7.50;;;3.10;97.90;;;;;;4123465;28;20268;-61
2022/01/19 09:56:49;;;;;;;15.47;6.90;;;3.00;98.00;;;;;;4123236;28;20644;-61
2022/01/19 09:58:50;;;;;;;12.40;7.27;;;3.00;97.90;;;;;;4124451;28;20268;-59
2022/01/19 10:00:51;;;;;;;17.10;7.67;;;3.00;98.30;;;;;;4123620;28;20300;-63
2022/01/19 10:03:21;;;;;;;14.93;6.50;;;3.10;98.20;;;;;;4124102;28;20268;-61
2022/01/19 10:05:23;;;;;;;11.40;5.70;;;3.10;97.10;;;;;;4123537;28;20268;-62
2022/01/19 10:07:26;;;;;;;13.40;6.20;;;3.10;97.70;;;;;;4124372;28;20046;-64
2022/01/19 10:09:29;;;;;;;10.47;5.73;;;3.30;97.50;;;;;;4124686;28;20256;-62
2022/01/19 10:18:33;;;;;;;10.17;5.40;;;3.20;96.60;;;;;;4123745;28;20334;-61
2022/01/19 10:20:34;;;;;;;9.63;4.07;;;3.20;96.30;;;;;;4123781;28;20288;-64
2022/01/19 10:22:36;;;;;;;7.57;4.53;;;3.10;96.00;;;;;;4123491;28;20276;-59
2022/01/19 10:25:04;;;;;;;8.47;4.10;;;3.10;96.00;;;;;;4124431;28;20276;-62
2022/01/19 10:27:28;;;;;;;10.83;5.03;;;3.00;95.60;;;;;;4123537;28;21057;-66
2022/01/19 10:29:29;;;;;;;7.00;3.00;;;3.00;95.50;;;;;;4124358;28;20268;-61
2022/01/19 10:31:32;;;;;;;8.20;3.37;;;3.00;95.00;;;;;;4123312;28;20287;-60
2022/01/19 10:33:33;;;;;;;7.60;3.73;;;2.90;95.10;;;;;;4124146;28;20387;-60
2022/01/19 10:35:38;;;;;;;6.13;2.77;;;3.00;95.40;;;;;;4123019;28;21058;-60
2022/01/19 10:37:39;;;;;;;6.57;2.50;;;3.00;96.20;;;;;;4123695;28;20260;-60
2022/01/19 10:39:48;;;;;;;9.10;3.33;;;3.00;94.90;;;;;;4123752;28;20737;-61
2022/01/19 10:42:11;;;;;;;7.17;3.47;;;3.10;94.60;;;;;;4123640;28;20819;-61
2022/01/19 10:44:31;;;;;;;9.63;3.40;;;3.00;93.40;;;;;;4123122;28;20311;-61
2022/01/19 10:46:36;;;;;;;10.10;4.63;;;3.00;94.00;;;;;;4123697;28;20753;-61
2022/01/19 10:48:38;;;;;;;13.50;4.87;;;2.90;94.10;;;;;;4123429;28;20034;-62
2022/01/19 10:50:40;;;;;;;13.73;5.97;;;3.00;94.90;;;;;;4123702;28;20276;-61
2022/01/19 10:52:45;;;;;;;14.70;6.83;;;3.10;95.10;;;;;;4122973;28;20268;-61
2022/01/19 10:54:49;;;;;;;17.67;5.90;;;3.20;95.00;;;;;;4123539;28;20323;-60
2022/01/19 10:56:57;;;;;;;21.70;7.87;;;3.20;94.50;;;;;;4122952;28;20287;-60
2022/01/19 10:59:01;;;;;;;23.73;7.27;;;3.30;94.30;;;;;;4122780;28;20268;-61
2022/01/19 11:01:02;;;;;;;11.63;5.77;;;3.30;94.30;;;;;;4122992;28;20318;-63
2022/01/19 11:03:28;;;;;;;17.30;6.70;;;3.30;94.10;;;;;;4122866;28;20748;-61
2022/01/19 11:05:46;;;;;;;18.23;9.57;;;3.30;93.10;;;;;;4123406;28;20284;-60
2022/01/19 11:07:47;;;;;;;7.17;3.33;;;3.30;93.40;;;;;;4123438;28;20663;-60
2022/01/19 11:10:01;;;;;;;7.80;2.93;;;3.30;93.60;;;;;;4122777;28;20272;-60
2022/01/19 11:12:10;;;;;;;6.83;2.10;;;3.20;93.60;;;;;;4123554;28;20256;-60
2022/01/19 11:14:16;;;;;;;10.37;4.00;;;3.10;91.40;;;;;;4122936;28;20264;-61
2022/01/19 11:16:17;;;;;;;18.07;2.53;;;3.00;92.90;;;;;;4123336;28;20330;-62
2022/01/19 11:18:19;;;;;;;16.57;3.80;;;2.80;91.30;;;;;;4122014;28;20276;-64
2022/01/19 11:20:24;;;;;;;7.30;2.43;;;2.60;92.60;;;;;;4121091;28;20343;-59
2022/01/19 11:22:36;;;;;;;4.37;2.30;;;2.50;93.00;;;;;;4123073;28;20838;-61
2022/01/19 11:25:00;;;;;;;5.97;1.73;;;2.60;93.30;;;;;;4121162;28;20323;-61
2022/01/19 11:27:03;;;;;;;4.40;2.57;;;2.60;92.40;;;;;;4122873;28;20280;-60
2022/01/19 11:29:24;;;;;;;9.13;2.50;;;2.40;91.90;;;;;;4122555;28;20318;-62
2022/01/19 11:31:31;;;;;;;5.67;2.53;;;2.30;91.80;;;;;;4122707;28;20268;-62
2022/01/19 11:33:43;;;;;;;9.97;2.70;;;2.20;91.60;;;;;;4122808;28;20721;-60
2022/01/19 11:35:47;;;;;;;7.73;2.40;;;2.20;92.60;;;;;;4123217;28;20338;-62
2022/01/19 11:37:49;;;;;;;17.43;4.70;;;2.10;92.30;;;;;;4121214;28;20277;-59
2022/01/19 11:40:32;;;;;;;14.53;3.87;;;2.10;92.50;;;;;;4122789;28;20284;-62
2022/01/19 11:42:34;;;;;;;9.47;3.03;;;2.10;92.80;;;;;;4111855;28;20292;-61
2022/01/19 11:44:40;;;;;;;20.60;4.30;;;2.20;92.90;;;;;;4122294;28;20331;-59
2022/01/19 11:46:45;;;;;;;12.60;3.80;;;2.20;93.30;;;;;;4122870;28;20264;-61
2022/01/19 11:48:46;;;;;;;5.37;2.60;;;2.30;93.50;;;;;;4122165;28;20264;-61
2022/01/19 11:50:48;;;;;;;9.27;3.10;;;2.40;93.60;;;;;;4122470;28;20276;-59
2022/01/19 11:52:53;;;;;;;9.00;3.57;;;2.40;93.20;;;;;;4122554;28;20323;-63
2022/01/19 11:55:11;;;;;;;6.43;3.40;;;2.40;93.40;;;;;;4122325;28;20264;-62
2022/01/19 11:57:28;;;;;;;5.73;2.37;;;2.50;93.20;;;;;;4122818;28;20264;-61
2022/01/19 11:59:31;;;;;;;10.30;2.30;;;2.50;92.80;;;;;;4122371;28;20322;-60
2022/01/19 12:01:32;;;;;;;8.20;3.23;;;2.40;93.30;;;;;;4122267;28;20327;-63